CheckWX is a tool to help pilots better visualize weather data.  It is not intended as a substitute for an official pre-flight weather briefing.

16:12:19 UTC

LTAR METAR
Sivas Airport
Sivas, Turkey
Current

22 mins ago

LTAR 231550Z 31011KT 6000 -SN BKN004 BKN020 M05/M06 Q1015
Observed
Jan-23 @ 15:50 UTC
Wind
  • 310° at 11 KTS
Visibility
6,000 meters
Flight Rules
LIFR
Conditions
Light Snow
Cloud Levels
  • Broken at 400' AGL
  • Broken at 2,000' AGL
Temperature
-5°C / 23°F
Dewpoint
-6°C / 21°F
Humidity
93%
Altimeter
29.97" Hg
Pressure
1014.92 hPa
Previous

29 mins ago

LTAR 231543Z 31011KT 4000 -SN BR BKN004 BKN020 M05/M06 Q1014
Observed
Jan-23 @ 15:43 UTC
Wind
  • 310° at 11 KTS
Visibility
4,000 meters
Flight Rules
LIFR
Conditions
Light Snow, Mist
Cloud Levels
  • Broken at 400' AGL
  • Broken at 2,000' AGL
Temperature
-5°C / 23°F
Dewpoint
-6°C / 21°F
Humidity
93%
Altimeter
29.94" Hg
Pressure
1013.92 hPa
Previous

60 mins ago

LTAR 231512Z 31008KT 2000 -SN BR BKN004 BKN020 M05/M06 Q1014 RMK RWY19 27009KT
Observed
Jan-23 @ 15:12 UTC
Wind
  • 310° at 8 KTS
Visibility
2,000 meters
Flight Rules
LIFR
Conditions
Light Snow, Mist
Cloud Levels
  • Broken at 400' AGL
  • Broken at 2,000' AGL
Temperature
-5°C / 23°F
Dewpoint
-6°C / 21°F
Humidity
93%
Altimeter
29.94" Hg
Pressure
1013.92 hPa